Time;durP1;ratioP1;P1;durP2;ratioP2;P2;SDS_P1;SDS_P2;PMS_P1;PMS_P2;Temp;Humidity;BMP_temperature;BMP_pressure;BME280_temperature;BME280_humidity;BME280_pressure;Samples;Min_cycle;Max_cycle;Signal;HPM_P1;HPM_P2
2022/01/09 00:00:27;;;;;;;41.72;5.82;;;;;;;5.47;98.18;99155.88;5032848;28;20098;-77
2022/01/09 00:02:53;;;;;;;35.30;5.65;;;;;;;5.48;98.19;99158.44;5032877;28;20031;-78
2022/01/09 00:05:18;;;;;;;31.95;4.97;;;;;;;5.52;97.43;99169.69;5049879;28;20024;-79
2022/01/09 00:07:44;;;;;;;28.23;4.50;;;;;;;5.50;97.29;99168.91;5032614;28;20028;-79
2022/01/09 00:10:10;;;;;;;30.17;4.90;;;;;;;5.51;97.30;99173.25;5033765;28;20143;-78
2022/01/09 00:12:36;;;;;;;33.45;4.03;;;;;;;5.48;97.22;99174.28;5051730;28;20024;-79
2022/01/09 00:15:03;;;;;;;29.17;5.32;;;;;;;5.50;96.82;99180.38;5030894;28;20095;-82
2022/01/09 00:17:28;;;;;;;34.17;4.68;;;;;;;5.50;96.63;99190.94;5051241;28;20021;-78
2022/01/09 00:19:53;;;;;;;39.08;5.22;;;;;;;5.51;97.01;99197.06;5045918;28;20664;-79
2022/01/09 00:22:34;;;;;;;37.95;4.60;;;;;;;5.50;97.03;99203.28;5029386;28;20029;-77
2022/01/09 00:24:59;;;;;;;35.05;5.32;;;;;;;5.50;96.90;99217.38;5032136;28;20029;-81
2022/01/09 00:27:25;;;;;;;35.95;5.70;;;;;;;5.49;96.49;99218.31;5016197;28;20048;-78
2022/01/09 00:29:50;;;;;;;38.38;5.28;;;;;;;5.47;96.77;99220.19;5051439;28;20087;-81
2022/01/09 00:32:15;;;;;;;35.00;5.75;;;;;;;5.47;96.49;99227.28;5050284;28;20411;-79
2022/01/09 00:34:41;;;;;;;35.30;5.40;;;;;;;5.45;96.59;99232.66;5032816;28;20025;-81
2022/01/09 00:37:06;;;;;;;31.53;4.53;;;;;;;5.48;96.35;99235.13;5033304;28;20279;-79
2022/01/09 00:39:31;;;;;;;30.85;5.28;;;;;;;5.53;95.63;99235.72;5050866;28;20275;-81
2022/01/09 00:41:57;;;;;;;28.42;5.05;;;;;;;5.53;95.29;99248.94;5051364;28;20048;-79
2022/01/09 00:44:22;;;;;;;43.53;5.45;;;;;;;5.52;95.69;99249.03;5032890;28;20044;-80
2022/01/09 00:46:47;;;;;;;32.40;4.63;;;;;;;5.49;95.75;99252.72;5033197;28;20107;-79
2022/01/09 00:49:13;;;;;;;32.00;4.90;;;;;;;5.47;95.93;99256.38;5032323;28;20016;-77
2022/01/09 00:51:38;;;;;;;35.92;4.90;;;;;;;5.46;96.27;99270.53;5032221;28;20029;-80
2022/01/09 00:54:04;;;;;;;30.83;5.93;;;;;;;5.49;95.77;99278.28;5051193;28;20029;-79
2022/01/09 00:56:29;;;;;;;29.98;4.90;;;;;;;5.49;95.85;99265.06;5031289;28;20510;-80
2022/01/09 00:58:54;;;;;;;27.45;4.53;;;;;;;5.51;95.95;99272.00;5051421;28;20502;-78
2022/01/09 01:01:19;;;;;;;36.55;5.03;;;;;;;5.57;95.15;99278.72;5051663;28;20398;-78
2022/01/09 01:03:45;;;;;;;35.63;4.72;;;;;;;5.54;94.78;99289.50;5034808;28;20025;-79
2022/01/09 01:06:10;;;;;;;38.83;5.43;;;;;;;5.55;94.18;99281.47;5050871;28;20078;-77
2022/01/09 01:08:35;;;;;;;37.70;5.38;;;;;;;5.55;93.86;99294.69;5050255;28;20279;-79
2022/01/09 01:11:01;;;;;;;44.58;5.40;;;;;;;5.56;93.86;99300.81;5031428;28;20021;-79
2022/01/09 01:13:27;;;;;;;30.70;5.70;;;;;;;5.53;93.72;99295.72;5049758;28;20025;-78
2022/01/09 01:15:52;;;;;;;32.05;5.72;;;;;;;5.54;93.30;99311.50;5033345;28;20021;-77
2022/01/09 01:18:18;;;;;;;26.83;3.85;;;;;;;5.52;93.63;99318.66;5032262;28;20475;-79
2022/01/09 01:20:43;;;;;;;28.27;4.70;;;;;;;5.50;93.23;99323.19;5013719;28;20031;-78
2022/01/09 01:23:08;;;;;;;24.67;4.47;;;;;;;5.47;92.34;99323.34;5015787;28;20029;-79
2022/01/09 01:25:35;;;;;;;28.17;3.92;;;;;;;5.49;92.35;99332.06;5032204;28;20032;-81
2022/01/09 01:28:01;;;;;;;28.67;4.47;;;;;;;5.45;92.41;99338.44;5030423;28;20033;-78
2022/01/09 01:30:26;;;;;;;31.90;4.78;;;;;;;5.42;92.72;99350.97;5032494;28;20372;-78
2022/01/09 01:32:51;;;;;;;36.63;3.42;;;;;;;5.40;92.40;99356.34;5031429;28;20037;-80
2022/01/09 01:35:17;;;;;;;34.35;5.53;;;;;;;5.47;92.00;99357.72;5044443;28;20029;-79
2022/01/09 01:37:42;;;;;;;27.52;4.15;;;;;;;5.47;92.21;99357.72;5029859;28;20036;-80
2022/01/09 01:40:14;;;;;;;32.00;4.68;;;;;;;5.48;92.56;99362.09;5027857;28;20021;-77
2022/01/09 01:42:40;;;;;;;25.85;4.00;;;;;;;5.46;92.79;99371.03;5029337;28;20443;-77
2022/01/09 01:45:06;;;;;;;26.60;3.90;;;;;;;5.50;92.31;99381.38;5030761;28;20487;-78
2022/01/09 01:47:31;;;;;;;;;;;;;;;5.47;92.57;99383.34;5049928;28;20025;-79
2022/01/09 01:49:57;;;;;;;21.17;3.17;;;;;;;5.47;92.30;99389.47;5030651;28;19920;-80
2022/01/09 01:52:28;;;;;;;27.00;4.30;;;;;;;5.48;91.93;99399.09;5035168;28;20032;-79
2022/01/09 01:54:54;;;;;;;33.33;4.85;;;;;;;5.46;91.79;99406.25;5034384;28;20017;-77
2022/01/09 01:57:19;;;;;;;25.58;3.50;;;;;;;5.47;91.33;99400.03;5033039;28;20023;-78
2022/01/09 01:59:44;;;;;;;20.92;3.75;;;;;;;5.46;91.24;99402.78;5034541;28;20021;-77
2022/01/09 02:02:10;;;;;;;20.15;3.70;;;;;;;5.38;91.62;99411.97;5050419;28;20068;-77
2022/01/09 02:04:35;;;;;;;16.05;3.00;;;;;;;5.34;92.22;99417.50;5033710;28;20025;-78
2022/01/09 02:07:02;;;;;;;20.70;3.08;;;;;;;5.33;91.68;99432.50;5035509;28;20036;-80
2022/01/09 02:09:27;;;;;;;25.02;3.42;;;;;;;5.37;91.18;99435.81;5034986;28;20025;-78
2022/01/09 02:11:53;;;;;;;20.63;3.10;;;;;;;5.36;91.72;99440.28;5052690;28;20025;-79
2022/01/09 02:14:18;;;;;;;21.00;3.00;;;;;;;5.34;91.40;99442.13;5052921;28;20029;-80
2022/01/09 02:16:44;;;;;;;24.10;3.67;;;;;;;5.31;91.61;99447.59;5033082;28;20282;-79
2022/01/09 02:19:14;;;;;;;19.98;4.00;;;;;;;5.30;91.49;99445.88;5033595;28;20054;-79
2022/01/09 02:21:44;;;;;;;23.15;3.25;;;;;;;5.32;91.30;99453.72;5036828;28;20036;-78
2022/01/09 02:24:10;;;;;;;20.80;3.60;;;;;;;5.28;91.09;99457.47;5036148;28;20024;-79
2022/01/09 02:26:35;;;;;;;16.70;3.00;;;;;;;5.26;91.03;99459.34;5035417;28;20029;-81
2022/01/09 02:29:00;;;;;;;24.80;4.13;;;;;;;5.23;91.41;99471.78;5050073;28;20025;-80
2022/01/09 02:31:25;;;;;;;19.30;3.10;;;;;;;5.26;91.17;99476.03;5049474;28;20365;-79
2022/01/09 02:33:51;;;;;;;26.27;2.80;;;;;;;5.24;91.24;99472.66;5052053;28;20283;-78
2022/01/09 02:36:16;;;;;;;26.33;3.47;;;;;;;5.19;91.18;99480.81;5050833;28;20318;-80
2022/01/09 02:38:42;;;;;;;21.65;3.58;;;;;;;5.18;91.19;99479.09;5030179;28;20313;-79
2022/01/09 02:41:07;;;;;;;23.98;3.28;;;;;;;5.22;90.62;99487.72;5050304;28;20029;-79
2022/01/09 02:43:33;;;;;;;18.73;2.92;;;;;;;5.18;90.78;99489.66;5034720;28;20021;-79
2022/01/09 02:46:53;;;;;;;19.13;2.90;;;;;;;5.19;90.79;99488.75;5051410;28;20020;-80
2022/01/09 02:48:45;;;;;;;19.65;3.42;;;;;;;5.21;90.64;99509.81;5039433;28;20029;-80
2022/01/09 02:51:17;;;;;;;25.60;3.90;;;;;;;5.18;90.91;99516.09;5032429;28;20045;-80
2022/01/09 02:53:47;;;;;;;17.90;2.90;;;;;;;5.17;90.88;99517.03;5051927;28;20021;-80
2022/01/09 02:56:13;;;;;;;18.27;3.22;;;;;;;5.13;90.48;99528.69;5034012;28;20055;-80
2022/01/09 02:58:39;;;;;;;19.98;3.08;;;;;;;5.06;90.56;99528.13;5034781;28;20028;-78
2022/01/09 03:01:06;;;;;;;22.95;3.33;;;;;;;5.03;90.71;99538.00;5034016;28;20024;-79
2022/01/09 03:03:32;;;;;;;21.27;3.30;;;;;;;5.04;90.43;99542.38;5051188;28;20413;-79
2022/01/09 03:05:57;;;;;;;19.83;3.13;;;;;;;5.01;90.51;99545.16;5016060;28;20032;-82
2022/01/09 03:08:22;;;;;;;28.50;3.58;;;;;;;5.00;89.89;99549.59;5052209;28;20029;-78
2022/01/09 03:10:48;;;;;;;19.27;2.70;;;;;;;4.97;89.77;99554.16;5018465;28;20021;-79
2022/01/09 03:13:13;;;;;;;15.85;2.53;;;;;;;4.94;89.86;99559.59;5052928;28;20429;-80
2022/01/09 03:15:38;;;;;;;20.35;3.28;;;;;;;4.95;89.65;99577.16;5052766;28;20021;-80
2022/01/09 03:18:04;;;;;;;11.88;2.70;;;;;;;4.96;88.51;99577.06;5019196;28;20503;-78
2022/01/09 03:20:29;;;;;;;16.27;2.65;;;;;;;5.03;88.13;99580.28;5016611;28;20025;-80
2022/01/09 03:22:56;;;;;;;21.75;3.25;;;;;;;5.05;88.07;99584.56;5018731;28;20040;-80
2022/01/09 03:25:22;;;;;;;17.55;3.00;;;;;;;5.04;87.75;99587.28;5033752;28;20021;-80
2022/01/09 03:27:50;;;;;;;13.30;2.08;;;;;;;5.04;87.80;99597.88;5034736;28;20108;-79
2022/01/09 03:30:18;;;;;;;13.50;2.60;;;;;;;5.00;87.76;99606.84;5034764;28;20033;-79
2022/01/09 03:32:43;;;;;;;14.98;2.22;;;;;;;4.93;88.01;99608.06;5052503;28;20020;-79
2022/01/09 03:35:14;;;;;;;21.45;2.75;;;;;;;4.89;87.76;99605.59;5053154;28;20494;-80
2022/01/09 03:37:41;;;;;;;12.45;2.45;;;;;;;4.88;87.89;99609.16;5034924;28;20024;-78
2022/01/09 03:40:08;;;;;;;12.52;2.33;;;;;;;4.90;87.49;99620.50;5017820;28;20041;-80
2022/01/09 03:42:34;;;;;;;16.88;4.10;;;;;;;4.90;88.04;99623.13;5029280;28;20116;-78
2022/01/09 03:44:59;;;;;;;17.25;2.70;;;;;;;4.91;88.08;99624.00;5050846;28;20033;-79
2022/01/09 03:47:24;;;;;;;18.88;2.60;;;;;;;4.88;87.97;99618.84;5034152;28;20115;-77
2022/01/09 03:49:53;;;;;;;13.65;2.30;;;;;;;4.91;87.61;99635.44;5034884;28;20047;-78
2022/01/09 03:52:18;;;;;;;12.38;2.08;;;;;;;4.93;87.58;99634.50;5021798;28;20029;-78
2022/01/09 03:54:44;;;;;;;15.20;2.50;;;;;;;4.88;87.59;99638.22;5039460;28;20391;-77
2022/01/09 03:57:09;;;;;;;17.60;2.78;;;;;;;4.88;87.74;99632.06;5036323;28;20118;-78
2022/01/09 03:59:35;;;;;;;16.15;2.33;;;;;;;4.86;87.64;99633.94;5035400;28;20029;-80
2022/01/09 04:02:00;;;;;;;17.50;2.63;;;;;;;4.83;87.09;99648.13;5036473;28;20033;-79
2022/01/09 04:04:26;;;;;;;16.83;3.38;;;;;;;4.79;87.88;99648.38;5054632;28;20028;-78
2022/01/09 04:06:51;;;;;;;12.93;2.30;;;;;;;4.76;87.82;99646.72;5052540;28;20036;-78
2022/01/09 04:09:28;;;;;;;18.65;3.03;;;;;;;4.70;88.41;99657.56;5036516;28;20020;-78
2022/01/09 04:12:02;;;;;;;21.10;3.00;;;;;;;4.67;88.15;99653.28;5033517;28;20025;-80
2022/01/09 04:14:28;;;;;;;18.80;2.67;;;;;;;4.72;88.05;99666.28;5047069;28;20052;-80
2022/01/09 04:16:53;;;;;;;18.58;3.15;;;;;;;4.64;88.17;99663.97;5033524;28;20482;-79
2022/01/09 04:19:19;;;;;;;14.95;2.70;;;;;;;4.66;88.21;99670.03;5034384;28;20434;-78
2022/01/09 04:21:44;;;;;;;19.15;2.60;;;;;;;4.65;87.63;99665.69;5032763;28;20033;-77
2022/01/09 04:24:10;;;;;;;13.38;2.28;;;;;;;4.70;87.55;99671.66;5034118;28;20025;-80
2022/01/09 04:26:36;;;;;;;18.42;2.97;;;;;;;4.72;87.76;99677.69;5016727;28;20032;-79
2022/01/09 04:29:01;;;;;;;11.40;2.35;;;;;;;4.67;87.50;99684.97;5032491;28;20033;-79
2022/01/09 04:31:26;;;;;;;14.48;2.50;;;;;;;4.62;87.41;99691.38;5030147;28;20041;-79
2022/01/09 04:33:52;;;;;;;20.75;2.92;;;;;;;4.59;87.37;99702.94;5031619;28;20075;-80
2022/01/09 04:36:17;;;;;;;17.42;2.22;;;;;;;4.55;87.15;99696.94;5029487;28;20467;-80
2022/01/09 04:38:42;;;;;;;12.48;2.63;;;;;;;4.52;86.97;99704.16;5029347;28;20530;-80
2022/01/09 04:41:08;;;;;;;12.07;2.50;;;;;;;4.51;86.68;99703.31;5031130;28;20110;-80
2022/01/09 04:43:33;;;;;;;20.85;2.63;;;;;;;4.47;86.97;99709.63;5030561;28;20032;-79
2022/01/09 04:45:59;;;;;;;17.17;2.55;;;;;;;4.54;87.36;99716.34;5030146;28;20033;-79
2022/01/09 04:48:24;;;;;;;12.68;2.10;;;;;;;4.55;87.34;99723.34;5031619;28;20030;-80
2022/01/09 04:50:52;;;;;;;12.90;2.08;;;;;;;4.51;88.31;99731.47;5027519;28;20029;-80
2022/01/09 04:53:17;;;;;;;22.33;2.97;;;;;;;4.53;89.10;99727.84;5011044;28;20029;-78
2022/01/09 04:55:49;;;;;;;19.83;2.65;;;;;;;4.65;89.34;99738.81;5028817;28;20478;-78
2022/01/09 04:58:15;;;;;;;20.10;3.55;;;;;;;4.62;89.86;99750.38;5031044;28;20340;-81
2022/01/09 05:00:40;;;;;;;18.02;2.45;;;;;;;4.59;89.88;99751.38;5028126;28;20037;-79
2022/01/09 05:03:06;;;;;;;12.95;2.47;;;;;;;4.60;89.17;99747.78;5031057;28;20472;-78
2022/01/09 05:05:32;;;;;;;13.57;2.88;;;;;;;4.67;87.95;99753.66;5013155;28;20022;-79
2022/01/09 05:07:58;;;;;;;19.80;2.50;;;;;;;4.71;87.71;99754.38;5030777;28;20052;-80
2022/01/09 05:10:23;;;;;;;19.13;2.72;;;;;;;4.66;88.44;99761.66;5027519;28;20032;-81
2022/01/09 05:12:48;;;;;;;14.57;2.60;;;;;;;4.68;87.93;99765.94;5029459;28;20028;-82
2022/01/09 05:15:18;;;;;;;15.90;2.22;;;;;;;4.69;87.79;99766.78;5026540;28;20425;-80
2022/01/09 05:17:44;;;;;;;14.98;2.30;;;;;;;4.66;88.23;99772.22;5030373;28;20022;-81
2022/01/09 05:20:09;;;;;;;8.13;2.35;;;;;;;4.68;88.07;99780.94;5012035;28;20091;-82
2022/01/09 05:22:35;;;;;;;9.68;2.05;;;;;;;4.66;87.74;99785.44;5029514;28;20022;-80
2022/01/09 05:25:02;;;;;;;21.23;2.53;;;;;;;4.65;87.60;99787.19;5029598;28;20033;-83
2022/01/09 05:27:28;;;;;;;13.02;2.35;;;;;;;4.64;87.46;99789.91;5034287;28;20026;-82
2022/01/09 05:29:54;;;;;;;16.85;2.47;;;;;;;4.67;87.00;99795.09;5030150;28;20029;-82
2022/01/09 05:32:19;;;;;;;8.43;1.83;;;;;;;4.68;86.71;99799.41;5032882;28;20092;-82
2022/01/09 05:34:45;;;;;;;17.40;2.45;;;;;;;4.69;86.45;99795.84;5032838;28;20044;-81
2022/01/09 05:37:10;;;;;;;11.23;2.10;;;;;;;4.68;86.89;99816.16;5029480;28;20048;-81
2022/01/09 05:39:35;;;;;;;10.20;2.10;;;;;;;4.66;86.88;99815.34;5031263;28;20026;-80
2022/01/09 05:42:06;;;;;;;12.30;2.17;;;;;;;4.73;86.32;99810.66;5035141;28;20280;-82
2022/01/09 05:44:32;;;;;;;14.15;2.60;;;;;;;4.77;85.71;99804.31;5035615;28;20021;-79
2022/01/09 05:46:59;;;;;;;24.52;3.97;;;;;;;4.79;86.41;99823.59;5035650;28;20373;-80
2022/01/09 05:49:24;;;;;;;17.00;2.72;;;;;;;4.75;86.65;99827.31;5033132;28;20106;-81
2022/01/09 05:51:49;;;;;;;11.65;1.80;;;;;;;4.73;86.94;99830.00;5034936;28;20037;-81
2022/01/09 05:54:15;;;;;;;18.58;2.95;;;;;;;4.75;86.80;99833.44;5032620;28;20057;-79
2022/01/09 05:56:40;;;;;;;11.27;2.17;;;;;;;4.70;87.41;99830.16;5034110;28;20053;-81
2022/01/09 05:59:06;;;;;;;17.58;3.50;;;;;;;4.63;87.73;99828.69;5032173;28;20488;-81
2022/01/09 06:01:31;;;;;;;14.25;2.65;;;;;;;4.60;87.01;99837.59;5033648;28;20028;-80
2022/01/09 06:03:56;;;;;;;16.88;2.25;;;;;;;4.61;86.73;99833.19;5032927;28;20033;-82
2022/01/09 06:06:21;;;;;;;15.02;2.85;;;;;;;4.63;86.58;99836.63;5032874;28;20022;-79
2022/01/09 06:08:47;;;;;;;12.60;2.20;;;;;;;4.66;86.40;99838.28;5032417;28;20104;-80
2022/01/09 06:11:12;;;;;;;16.20;2.23;;;;;;;4.65;86.26;99850.59;5028791;28;20057;-79
2022/01/09 06:13:38;;;;;;;14.48;2.55;;;;;;;4.63;86.40;99855.13;5015799;28;20363;-80
2022/01/09 06:16:04;;;;;;;14.20;2.17;;;;;;;4.62;86.38;99856.03;5030542;28;20065;-80
2022/01/09 06:18:29;;;;;;;19.83;2.92;;;;;;;4.54;86.80;99858.97;5031884;28;20441;-81
2022/01/09 06:20:55;;;;;;;15.40;3.17;;;;;;;4.50;87.15;99860.03;5030283;28;20037;-80
2022/01/09 06:23:20;;;;;;;13.95;2.55;;;;;;;4.47;87.32;99870.72;5032062;28;20048;-80
2022/01/09 06:25:55;;;;;;;10.90;2.58;;;;;;;4.49;87.42;99871.53;5031467;28;20476;-80
2022/01/09 06:28:20;;;;;;;15.70;2.33;;;;;;;4.49;87.66;99876.81;5033115;28;20396;-80
2022/01/09 06:30:46;;;;;;;17.02;2.78;;;;;;;4.48;87.07;99883.00;5037678;28;20048;-81
2022/01/09 06:33:11;;;;;;;11.05;1.80;;;;;;;4.49;87.02;99879.44;5034567;28;20063;-79
2022/01/09 06:35:38;;;;;;;9.73;1.85;;;;;;;4.49;86.00;99889.13;5017651;28;20021;-80
2022/01/09 06:38:04;;;;;;;12.00;2.95;;;;;;;4.42;86.24;99889.38;5035048;28;20025;-78
2022/01/09 06:40:29;;;;;;;11.77;1.73;;;;;;;4.40;86.54;99900.94;5017279;28;20071;-80
2022/01/09 06:42:55;;;;;;;12.23;2.42;;;;;;;4.39;86.81;99907.13;5034748;28;20041;-80
2022/01/09 06:45:23;;;;;;;14.70;2.40;;;;;;;4.43;86.52;99906.13;5050391;28;20095;-79
2022/01/09 06:47:48;;;;;;;16.95;2.60;;;;;;;4.44;86.70;99906.03;5052501;28;20029;-80
2022/01/09 06:50:15;;;;;;;11.75;1.67;;;;;;;4.47;86.61;99912.97;5034884;28;20025;-80
2022/01/09 06:52:41;;;;;;;11.15;1.85;;;;;;;4.47;87.07;99909.50;5034868;28;20060;-80
2022/01/09 06:55:07;;;;;;;12.05;1.88;;;;;;;4.50;86.94;99923.44;5018744;28;20486;-80
2022/01/09 06:57:35;;;;;;;;;;;;;;;4.53;86.86;99923.28;5017937;28;20479;-79
2022/01/09 07:00:00;;;;;;;19.98;2.28;;;;;;;4.56;86.51;99917.03;5035067;28;19917;-78
2022/01/09 07:02:26;;;;;;;9.70;2.33;;;;;;;4.56;85.64;99923.19;5053896;28;20075;-81
2022/01/09 07:04:51;;;;;;;11.32;2.22;;;;;;;4.55;84.99;99934.66;5035496;28;20029;-80
2022/01/09 07:07:17;;;;;;;12.20;1.92;;;;;;;4.56;85.08;99931.09;5034675;28;20043;-81
2022/01/09 07:09:42;;;;;;;11.45;2.15;;;;;;;4.56;85.07;99940.81;5034157;28;20075;-78
2022/01/09 07:12:09;;;;;;;15.18;1.98;;;;;;;4.56;84.90;99933.75;5034186;28;20078;-80
2022/01/09 07:14:34;;;;;;;8.38;2.10;;;;;;;4.55;85.08;99945.22;5034399;28;20029;-80
2022/01/09 07:17:01;;;;;;;15.68;2.45;;;;;;;4.59;84.66;99951.25;5032397;28;20225;-78
2022/01/09 07:19:26;;;;;;;13.40;2.60;;;;;;;4.56;84.68;99952.22;5050887;28;20063;-80
2022/01/09 07:21:52;;;;;;;13.02;2.67;;;;;;;4.63;84.76;99950.22;5031213;28;20029;-79
2022/01/09 07:24:17;;;;;;;15.10;2.00;;;;;;;4.58;85.52;99955.69;5050915;28;20098;-80
2022/01/09 07:26:42;;;;;;;10.82;2.17;;;;;;;4.58;86.05;99965.38;5034006;28;20378;-81
2022/01/09 07:29:08;;;;;;;10.18;1.90;;;;;;;4.60;85.69;99964.38;5049681;28;20503;-78
2022/01/09 07:31:34;;;;;;;12.30;2.45;;;;;;;4.59;86.52;99965.31;5050630;28;20482;-82
2022/01/09 07:33:59;;;;;;;13.30;2.13;;;;;;;4.58;86.75;99968.88;5033501;28;20138;-81
2022/01/09 07:36:24;;;;;;;15.32;2.40;;;;;;;4.57;86.99;99979.50;5033961;28;20017;-81
2022/01/09 07:38:49;;;;;;;10.98;2.03;;;;;;;4.60;87.56;99988.16;5033729;28;20090;-80
2022/01/09 07:41:15;;;;;;;14.30;2.28;;;;;;;4.60;87.99;99980.22;5051823;28;20067;-82
2022/01/09 07:43:41;;;;;;;6.95;2.20;;;;;;;4.62;88.33;99984.59;5049285;28;20029;-80
2022/01/09 07:46:06;;;;;;;15.60;2.33;;;;;;;4.58;88.36;99981.22;5031740;28;20533;-81
2022/01/09 07:48:32;;;;;;;13.90;2.10;;;;;;;4.56;88.64;99989.22;5050854;28;20029;-81
2022/01/09 07:50:57;;;;;;;13.48;2.67;;;;;;;4.56;88.24;99983.09;5033704;28;20021;-79
2022/01/09 07:53:23;;;;;;;12.85;1.98;;;;;;;4.56;88.11;99985.72;5052293;28;20025;-82
2022/01/09 07:55:52;;;;;;;16.10;2.63;;;;;;;4.54;87.80;99985.75;5050329;28;20020;-80
2022/01/09 07:58:18;;;;;;;12.77;2.33;;;;;;;4.58;87.37;99997.94;5049032;28;20090;-81
2022/01/09 08:00:44;;;;;;;12.45;2.50;;;;;;;4.59;87.63;99997.03;5033953;28;20443;-82
2022/01/09 08:03:10;;;;;;;16.33;3.55;;;;;;;4.67;87.54;100002.00;5033514;28;20063;-82
2022/01/09 08:05:36;;;;;;;14.40;2.42;;;;;;;4.67;87.32;100001.16;5051156;28;20025;-81
2022/01/09 08:08:01;;;;;;;18.50;2.35;;;;;;;4.70;86.76;100008.94;5033014;28;20086;-82
2022/01/09 08:10:26;;;;;;;15.52;2.00;;;;;;;4.67;87.21;100017.84;5016428;28;20017;-81
2022/01/09 08:12:52;;;;;;;15.52;2.80;;;;;;;4.66;87.51;100021.41;5033417;28;20032;-83
2022/01/09 08:15:17;;;;;;;19.02;2.80;;;;;;;4.67;87.40;100032.84;5032724;28;20051;-80
2022/01/09 08:17:46;;;;;;;11.82;2.83;;;;;;;4.69;87.31;100021.28;5049136;28;20059;-80
2022/01/09 08:20:15;;;;;;;16.67;2.80;;;;;;;4.74;86.76;100029.88;5051481;28;20040;-82
2022/01/09 08:22:42;;;;;;;16.00;2.45;;;;;;;4.81;86.07;100033.16;5050805;28;20471;-80
2022/01/09 08:25:08;;;;;;;;;;;;;;;4.83;85.99;100033.94;5032942;28;20040;-79
2022/01/09 08:27:33;;;;;;;17.73;2.72;;;;;;;4.88;85.36;100039.91;5032050;28;19991;-79
2022/01/09 08:29:58;;;;;;;14.70;2.40;;;;;;;4.83;85.66;100047.16;5048785;28;20037;-79
2022/01/09 08:32:24;;;;;;;20.58;3.40;;;;;;;4.83;86.23;100054.22;5048311;28;20133;-81
2022/01/09 08:34:49;;;;;;;18.20;2.80;;;;;;;4.80;86.63;100065.78;5032908;28;20017;-81
2022/01/09 08:37:14;;;;;;;13.20;2.03;;;;;;;4.81;86.64;100062.22;5050932;28;20313;-81
2022/01/09 08:39:41;;;;;;;16.48;3.15;;;;;;;4.85;86.41;100057.69;5051224;28;20060;-83
2022/01/09 08:42:07;;;;;;;12.05;2.13;;;;;;;4.86;85.67;100062.91;5016161;28;20024;-80
2022/01/09 08:44:32;;;;;;;10.38;3.17;;;;;;;4.85;85.81;100066.47;5032769;28;20036;-80
2022/01/09 08:46:58;;;;;;;11.57;2.15;;;;;;;4.88;85.48;100074.28;5032696;28;20336;-81
2022/01/09 08:49:23;;;;;;;15.35;2.20;;;;;;;4.90;85.78;100079.50;5049831;28;20052;-80
2022/01/09 08:51:48;;;;;;;16.77;2.88;;;;;;;4.90;85.83;100085.63;5050284;28;20108;-78
2022/01/09 08:54:14;;;;;;;16.92;2.72;;;;;;;4.92;85.63;100082.94;5045720;28;20055;-81
2022/01/09 08:56:40;;;;;;;14.53;2.30;;;;;;;4.98;85.35;100082.69;5031444;28;20028;-80
2022/01/09 08:59:07;;;;;;;20.38;2.72;;;;;;;4.97;85.45;100094.19;5051836;28;20777;-82
2022/01/09 09:01:33;;;;;;;12.30;2.63;;;;;;;4.95;87.23;100096.03;5033948;28;20444;-81
2022/01/09 09:03:58;;;;;;;19.00;3.17;;;;;;;4.84;88.77;100099.09;5054231;28;20021;-81
2022/01/09 09:06:23;;;;;;;14.30;2.45;;;;;;;4.78;89.07;100094.03;5035032;28;20033;-82
2022/01/09 09:08:49;;;;;;;12.10;2.78;;;;;;;4.66;89.21;100095.38;5033932;28;20447;-83
2022/01/09 09:11:14;;;;;;;15.52;2.20;;;;;;;4.63;89.74;100107.84;5050723;28;20108;-80
2022/01/09 09:13:40;;;;;;;9.88;1.75;;;;;;;4.62;89.33;100107.00;5032710;28;20025;-83
2022/01/09 09:16:06;;;;;;;15.15;2.38;;;;;;;4.68;89.68;100113.78;5018121;28;20194;-82
2022/01/09 09:18:32;;;;;;;24.42;2.67;;;;;;;4.68;89.63;100116.44;5053823;28;20443;-82
2022/01/09 09:20:57;;;;;;;9.23;1.92;;;;;;;4.64;90.43;100112.22;5034848;28;20028;-84
2022/01/09 09:23:25;;;;;;;18.60;2.10;;;;;;;4.57;90.16;100115.09;5020041;28;20033;-82
2022/01/09 09:25:51;;;;;;;17.67;2.50;;;;;;;4.57;90.26;100122.13;5046227;28;20104;-81
2022/01/09 09:29:18;;;;;;;16.13;2.53;;;;;;;4.60;90.63;100138.72;5066336;28;20372;-74
2022/01/09 09:31:43;;;;;;;16.27;2.50;;;;;;;4.58;90.53;100143.22;5049425;28;20024;-75
2022/01/09 09:34:08;;;;;;;21.60;2.50;;;;;;;4.56;90.95;100145.06;5066410;28;20051;-74
2022/01/09 09:36:35;;;;;;;17.38;2.22;;;;;;;4.53;91.62;100147.78;5064111;28;20513;-75
2022/01/09 09:39:00;;;;;;;16.27;2.63;;;;;;;4.52;91.76;100161.06;5064240;28;20028;-74
2022/01/09 09:41:26;;;;;;;15.70;2.88;;;;;;;4.51;92.37;100160.22;5066424;28;20283;-75
2022/01/09 09:43:52;;;;;;;16.63;2.42;;;;;;;4.51;92.58;100157.59;5065537;28;20059;-75
2022/01/09 09:46:21;;;;;;;22.20;2.88;;;;;;;4.61;92.90;100158.09;5070624;28;20095;-75
2022/01/09 09:48:47;;;;;;;20.58;3.00;;;;;;;4.81;91.89;100159.13;5063796;28;20029;-75
2022/01/09 09:51:12;;;;;;;23.40;3.30;;;;;;;4.87;91.55;100167.69;5064400;28;20078;-75
2022/01/09 09:53:37;;;;;;;17.83;2.63;;;;;;;4.89;91.09;100176.44;5077803;28;20323;-75
2022/01/09 09:56:03;;;;;;;14.88;2.25;;;;;;;4.84;90.93;100183.66;5051153;28;20021;-75
2022/01/09 09:58:28;;;;;;;16.15;2.55;;;;;;;4.85;90.53;100189.81;5048335;28;20043;-75
2022/01/09 10:00:55;;;;;;;12.57;2.65;;;;;;;4.78;91.08;100199.75;5049810;28;20136;-74
2022/01/09 10:03:32;;;;;;;15.95;2.60;;;;;;;4.84;91.51;100186.28;5084481;28;20034;-74
2022/01/09 10:05:57;;;;;;;;;;;;;;;4.96;92.45;100189.41;5065289;28;20086;-74
2022/01/09 10:08:34;;;;;;;12.20;2.30;;;;;;;5.38;91.29;100183.38;5064761;28;19917;-75
2022/01/09 10:11:11;;;;;;;10.00;2.13;;;;;;;5.63;88.39;100187.69;5067298;28;20036;-74
2022/01/09 10:13:36;;;;;;;;;;;;;;;5.82;86.94;100187.78;5065095;28;20115;-74
2022/01/09 10:16:01;;;;;;;11.27;2.20;;;;;;;5.77;85.96;100192.41;5083501;28;20019;-74
2022/01/09 10:18:43;;;;;;;18.05;2.33;;;;;;;5.62;86.63;100192.13;5063516;28;20483;-73
2022/01/09 10:21:14;;;;;;;10.98;2.20;;;;;;;5.59;87.06;100199.31;5067332;28;20099;-75
2022/01/09 10:24:05;;;;;;;14.57;2.47;;;;;;;5.52;87.55;100186.31;5068141;28;20021;-73
2022/01/09 10:26:33;;;;;;;15.60;2.35;;;;;;;5.60;87.52;100193.97;5063422;28;20031;-74
2022/01/09 10:28:59;;;;;;;9.43;2.00;;;;;;;5.61;87.12;100194.81;5066528;28;20516;-74
2022/01/09 10:31:26;;;;;;;10.02;1.83;;;;;;;5.58;86.21;100201.09;5084575;28;20052;-75
2022/01/09 10:34:10;;;;;;;16.35;2.70;;;;;;;5.48;86.17;100203.25;5068294;28;20401;-74
2022/01/09 10:36:40;;;;;;;13.15;2.45;;;;;;;5.39;87.09;100206.25;5082607;28;20028;-75
2022/01/09 10:39:09;;;;;;;14.48;2.90;;;;;;;5.33;87.67;100214.44;5061274;28;20055;-75
2022/01/09 10:41:45;;;;;;;14.43;2.80;;;;;;;5.32;86.96;100210.06;5049795;28;20039;-74
2022/01/09 10:44:15;;;;;;;13.80;2.35;;;;;;;5.34;87.12;100213.53;5064957;28;20024;-74
2022/01/09 10:46:40;;;;;;;20.88;2.78;;;;;;;5.29;87.04;100213.69;5063182;28;20028;-74
2022/01/09 10:49:06;;;;;;;21.45;3.15;;;;;;;5.25;87.37;100219.16;5052340;28;20427;-74
2022/01/09 10:51:31;;;;;;;15.82;2.55;;;;;;;5.26;87.34;100223.53;5051825;28;20107;-75
2022/01/09 10:53:58;;;;;;;14.27;2.20;;;;;;;5.29;87.81;100216.34;5050666;28;20075;-74
2022/01/09 10:56:25;;;;;;;19.08;2.83;;;;;;;5.36;87.19;100224.91;5063689;28;20359;-74
2022/01/09 10:58:57;;;;;;;15.15;2.33;;;;;;;5.44;87.27;100206.94;5067379;28;20047;-75
2022/01/09 11:01:25;;;;;;;11.35;2.05;;;;;;;5.55;86.84;100217.97;5070834;28;20467;-74
2022/01/09 11:03:55;;;;;;;28.17;3.35;;;;;;;5.59;86.40;100221.34;5062802;28;20474;-74
2022/01/09 11:06:21;;;;;;;12.65;2.42;;;;;;;5.63;85.60;100216.78;5044164;28;20048;-75
2022/01/09 11:08:47;;;;;;;24.88;4.10;;;;;;;5.64;85.28;100227.31;5071413;28;20034;-75
2022/01/09 11:11:21;;;;;;;17.55;3.72;;;;;;;5.62;85.39;100226.53;5071832;28;20024;-74
2022/01/09 11:13:48;;;;;;;13.27;2.80;;;;;;;5.66;86.07;100229.91;5049068;28;20021;-75
2022/01/09 11:16:33;;;;;;;12.23;2.17;;;;;;;5.67;86.14;100234.28;5035283;28;20031;-74
2022/01/09 11:19:13;;;;;;;14.75;2.65;;;;;;;5.71;86.25;100234.06;5051591;28;20024;-75
2022/01/09 11:21:47;;;;;;;21.35;3.17;;;;;;;5.77;85.77;100227.69;5049493;28;20386;-76
2022/01/09 11:24:24;;;;;;;19.13;2.40;;;;;;;5.83;84.24;100237.16;5050503;28;20074;-75
2022/01/09 11:27:11;;;;;;;17.98;2.95;;;;;;;5.74;84.40;100238.41;5052958;28;20486;-75
2022/01/09 11:30:15;;;;;;;16.23;2.67;;;;;;;5.71;84.42;100246.47;5052898;28;21103;-75